sensor_id;sensor_type;location;lat;lon;timestamp;pressure;altitude;pressure_sealevel;temperature;humidity
47280;BME280;34064;44.942;0.008;2023-01-30T00:01:04;100452.47;;;3.25;53.54
47280;BME280;34064;44.942;0.008;2023-01-30T00:03:32;100447.22;;;3.25;54.06
47280;BME280;34064;44.942;0.008;2023-01-30T00:06:00;100446.38;;;3.23;54.18
47280;BME280;34064;44.942;0.008;2023-01-30T00:08:27;100455.19;;;3.20;54.03
47280;BME280;34064;44.942;0.008;2023-01-30T00:10:55;100458.72;;;3.18;53.96
47280;BME280;34064;44.942;0.008;2023-01-30T00:13:22;100463.22;;;3.12;53.62
47280;BME280;34064;44.942;0.008;2023-01-30T00:15:50;100477.28;;;3.08;53.82
47280;BME280;34064;44.942;0.008;2023-01-30T00:18:17;100478.25;;;3.04;53.84
47280;BME280;34064;44.942;0.008;2023-01-30T00:20:45;100481.84;;;2.99;54.10
47280;BME280;34064;44.942;0.008;2023-01-30T00:23:12;100490.66;;;2.96;54.07
47280;BME280;34064;44.942;0.008;2023-01-30T00:25:43;100481.94;;;2.94;54.07
47280;BME280;34064;44.942;0.008;2023-01-30T00:28:11;100483.63;;;2.96;54.22
47280;BME280;34064;44.942;0.008;2023-01-30T00:30:38;100486.31;;;2.95;54.40
47280;BME280;34064;44.942;0.008;2023-01-30T00:33:06;100481.91;;;2.95;54.12
47280;BME280;34064;44.942;0.008;2023-01-30T00:35:33;100480.16;;;2.96;54.12
47280;BME280;34064;44.942;0.008;2023-01-30T00:38:01;100479.38;;;2.91;54.46
47280;BME280;34064;44.942;0.008;2023-01-30T00:40:29;100474.16;;;2.89;53.93
47280;BME280;34064;44.942;0.008;2023-01-30T00:42:57;100465.38;;;2.89;54.33
47280;BME280;34064;44.942;0.008;2023-01-30T00:45:44;100462.75;;;2.89;54.48
47280;BME280;34064;44.942;0.008;2023-01-30T00:48:33;100454.00;;;2.90;54.62
47280;BME280;34064;44.942;0.008;2023-01-30T00:51:00;100451.41;;;2.88;54.82
47280;BME280;34064;44.942;0.008;2023-01-30T00:53:26;100462.88;;;2.83;54.98
47280;BME280;34064;44.942;0.008;2023-01-30T00:55:54;100458.56;;;2.80;54.71
47280;BME280;34064;44.942;0.008;2023-01-30T00:58:21;100450.78;;;2.75;54.37
47280;BME280;34064;44.942;0.008;2023-01-30T01:00:49;100452.56;;;2.73;54.42
47280;BME280;34064;44.942;0.008;2023-01-30T01:03:15;100442.97;;;2.71;54.29
47280;BME280;34064;44.942;0.008;2023-01-30T01:05:42;100434.31;;;2.67;54.24
47280;BME280;34064;44.942;0.008;2023-01-30T01:08:09;100430.00;;;2.63;54.30
47280;BME280;34064;44.942;0.008;2023-01-30T01:10:36;100425.72;;;2.59;54.55
47280;BME280;34064;44.942;0.008;2023-01-30T01:13:03;100429.31;;;2.52;54.49
47280;BME280;34064;44.942;0.008;2023-01-30T01:15:31;100422.38;;;2.49;54.53
47280;BME280;34064;44.942;0.008;2023-01-30T01:17:59;100423.31;;;2.45;54.47
47280;BME280;34064;44.942;0.008;2023-01-30T01:20:27;100427.72;;;2.43;54.62
47280;BME280;34064;44.942;0.008;2023-01-30T01:22:57;100430.34;;;2.41;54.28
47280;BME280;34064;44.942;0.008;2023-01-30T01:25:24;100431.28;;;2.39;54.61
47280;BME280;34064;44.942;0.008;2023-01-30T01:27:51;100436.53;;;2.39;54.39
47280;BME280;34064;44.942;0.008;2023-01-30T01:30:18;100433.94;;;2.37;54.38
47280;BME280;34064;44.942;0.008;2023-01-30T01:32:45;100442.69;;;2.36;54.41
47280;BME280;34064;44.942;0.008;2023-01-30T01:35:12;100442.72;;;2.34;54.49
47280;BME280;34064;44.942;0.008;2023-01-30T01:37:40;100448.88;;;2.32;54.52
47280;BME280;34064;44.942;0.008;2023-01-30T01:40:09;100451.56;;;2.29;54.52
47280;BME280;34064;44.942;0.008;2023-01-30T01:43:00;100455.97;;;2.27;54.80
47280;BME280;34064;44.942;0.008;2023-01-30T01:45:28;100461.25;;;2.25;54.21
47280;BME280;34064;44.942;0.008;2023-01-30T01:48:31;100456.06;;;2.21;54.66
47280;BME280;34064;44.942;0.008;2023-01-30T01:51:00;100463.94;;;2.21;54.54
47280;BME280;34064;44.942;0.008;2023-01-30T01:53:35;100465.72;;;2.18;54.85
47280;BME280;34064;44.942;0.008;2023-01-30T01:56:04;100465.75;;;2.17;54.57
47280;BME280;34064;44.942;0.008;2023-01-30T01:58:42;100479.75;;;2.14;54.44
47280;BME280;34064;44.942;0.008;2023-01-30T02:01:11;100481.53;;;2.12;54.73
47280;BME280;34064;44.942;0.008;2023-01-30T02:03:44;100481.59;;;2.09;54.55
47280;BME280;34064;44.942;0.008;2023-01-30T02:06:12;100482.50;;;2.05;54.82
47280;BME280;34064;44.942;0.008;2023-01-30T02:09:03;100485.16;;;2.03;54.28
47280;BME280;34064;44.942;0.008;2023-01-30T02:11:46;100493.09;;;1.99;54.67
47280;BME280;34064;44.942;0.008;2023-01-30T02:14:17;100490.50;;;1.96;54.81
47280;BME280;34064;44.942;0.008;2023-01-30T02:16:46;100495.75;;;1.96;55.09
47280;BME280;34064;44.942;0.008;2023-01-30T02:28:25;100522.03;;;1.93;54.62
47280;BME280;34064;44.942;0.008;2023-01-30T02:31:18;100530.72;;;1.93;54.50
47280;BME280;34064;44.942;0.008;2023-01-30T02:37:01;100518.47;;;1.94;54.80
47280;BME280;34064;44.942;0.008;2023-01-30T02:42:39;100513.19;;;2.00;55.03
47280;BME280;34064;44.942;0.008;2023-01-30T02:48:26;100528.88;;;2.01;54.77
47280;BME280;34064;44.942;0.008;2023-01-30T02:51:02;100534.16;;;2.00;54.78
47280;BME280;34064;44.942;0.008;2023-01-30T02:53:32;100541.16;;;1.98;54.56
47280;BME280;34064;44.942;0.008;2023-01-30T02:55:59;100540.34;;;1.94;54.64
47280;BME280;34064;44.942;0.008;2023-01-30T02:58:28;100541.25;;;1.92;54.72
47280;BME280;34064;44.942;0.008;2023-01-30T03:06:57;100510.72;;;1.87;54.85
47280;BME280;34064;44.942;0.008;2023-01-30T03:12:47;100509.13;;;1.76;54.99
47280;BME280;34064;44.942;0.008;2023-01-30T03:15:27;100514.41;;;1.73;54.86
47280;BME280;34064;44.942;0.008;2023-01-30T03:17:56;100526.69;;;1.69;54.96
47280;BME280;34064;44.942;0.008;2023-01-30T03:20:23;100526.72;;;1.67;55.03
47280;BME280;34064;44.942;0.008;2023-01-30T03:22:52;100516.25;;;1.64;55.41
47280;BME280;34064;44.942;0.008;2023-01-30T03:25:21;100508.44;;;1.63;55.25
47280;BME280;34064;44.942;0.008;2023-01-30T03:27:51;100493.63;;;1.59;55.46
47280;BME280;34064;44.942;0.008;2023-01-30T03:30:19;100494.50;;;1.58;55.18
47280;BME280;34064;44.942;0.008;2023-01-30T03:32:46;100508.53;;;1.53;55.10
47280;BME280;34064;44.942;0.008;2023-01-30T03:35:12;100497.22;;;1.51;55.08
47280;BME280;34064;44.942;0.008;2023-01-30T03:37:40;100498.16;;;1.46;55.15
47280;BME280;34064;44.942;0.008;2023-01-30T03:40:07;100510.38;;;1.45;55.15
47280;BME280;34064;44.942;0.008;2023-01-30T03:42:33;100524.38;;;1.44;55.08
47280;BME280;34064;44.942;0.008;2023-01-30T03:44:59;100513.88;;;1.44;55.33
47280;BME280;34064;44.942;0.008;2023-01-30T03:47:26;100514.75;;;1.46;55.26
47280;BME280;34064;44.942;0.008;2023-01-30T03:49:52;100511.22;;;1.49;55.08
47280;BME280;34064;44.942;0.008;2023-01-30T03:52:18;100492.00;;;1.48;54.89
47280;BME280;34064;44.942;0.008;2023-01-30T03:54:45;100503.34;;;1.47;55.23
47280;BME280;34064;44.942;0.008;2023-01-30T03:57:11;100500.81;;;1.41;55.14
47280;BME280;34064;44.942;0.008;2023-01-30T03:59:38;100511.31;;;1.38;55.15
47280;BME280;34064;44.942;0.008;2023-01-30T04:02:04;100519.22;;;1.35;55.25
47280;BME280;34064;44.942;0.008;2023-01-30T04:04:30;100500.94;;;1.32;55.37
47280;BME280;34064;44.942;0.008;2023-01-30T04:06:57;100507.06;;;1.28;55.51
47280;BME280;34064;44.942;0.008;2023-01-30T04:09:23;100484.41;;;1.25;55.29
47280;BME280;34064;44.942;0.008;2023-01-30T04:11:49;100482.69;;;1.26;55.25
47280;BME280;34064;44.942;0.008;2023-01-30T04:14:15;100480.97;;;1.21;55.35
47280;BME280;34064;44.942;0.008;2023-01-30T04:16:42;100488.03;;;1.13;55.27
47280;BME280;34064;44.942;0.008;2023-01-30T04:19:09;100494.22;;;1.04;55.71
47280;BME280;34064;44.942;0.008;2023-01-30T04:21:35;100498.59;;;1.04;55.36
47280;BME280;34064;44.942;0.008;2023-01-30T04:24:01;100489.03;;;1.01;55.53
47280;BME280;34064;44.942;0.008;2023-01-30T04:26:28;100493.41;;;1.01;55.52
47280;BME280;34064;44.942;0.008;2023-01-30T04:28:54;100495.13;;;1.02;55.31
47280;BME280;34064;44.942;0.008;2023-01-30T04:31:21;100486.41;;;1.03;55.55
47280;BME280;34064;44.942;0.008;2023-01-30T04:33:47;100477.66;;;1.04;55.96
47280;BME280;34064;44.942;0.008;2023-01-30T04:36:14;100474.16;;;1.05;55.73
47280;BME280;34064;44.942;0.008;2023-01-30T04:38:40;100467.19;;;1.04;55.35
47280;BME280;34064;44.942;0.008;2023-01-30T04:41:07;100477.69;;;1.02;55.64
47280;BME280;34064;44.942;0.008;2023-01-30T04:43:33;100478.56;;;1.01;55.72
47280;BME280;34064;44.942;0.008;2023-01-30T04:45:59;100474.25;;;0.99;55.65
47280;BME280;34064;44.942;0.008;2023-01-30T04:48:26;100472.50;;;0.98;55.52
47280;BME280;34064;44.942;0.008;2023-01-30T04:50:54;100480.34;;;0.99;55.73
47280;BME280;34064;44.942;0.008;2023-01-30T04:53:21;100477.69;;;1.02;55.54
47280;BME280;34064;44.942;0.008;2023-01-30T04:55:48;100479.44;;;1.03;55.60
47280;BME280;34064;44.942;0.008;2023-01-30T04:58:15;100482.06;;;1.03;55.20
47280;BME280;34064;44.942;0.008;2023-01-30T05:00:42;100473.31;;;1.03;55.49
47280;BME280;34064;44.942;0.008;2023-01-30T05:03:08;100455.91;;;1.00;55.66
47280;BME280;34064;44.942;0.008;2023-01-30T05:05:35;100465.53;;;0.97;55.55
47280;BME280;34064;44.942;0.008;2023-01-30T05:08:02;100468.13;;;0.98;55.50
47280;BME280;34064;44.942;0.008;2023-01-30T05:10:28;100471.66;;;0.96;55.54
47280;BME280;34064;44.942;0.008;2023-01-30T05:12:54;100477.78;;;0.91;55.46
47280;BME280;34064;44.942;0.008;2023-01-30T05:15:21;100472.56;;;0.93;55.34
47280;BME280;34064;44.942;0.008;2023-01-30T05:17:47;100483.03;;;0.91;55.29
47280;BME280;34064;44.942;0.008;2023-01-30T05:20:14;100487.41;;;0.88;55.13
47280;BME280;34064;44.942;0.008;2023-01-30T05:22:40;100482.25;;;0.85;55.41
47280;BME280;34064;44.942;0.008;2023-01-30T05:25:07;100490.97;;;0.84;55.25
47280;BME280;34064;44.942;0.008;2023-01-30T05:27:35;100500.59;;;0.80;55.45
47280;BME280;34064;44.942;0.008;2023-01-30T05:30:06;100516.31;;;0.80;55.16
47280;BME280;34064;44.942;0.008;2023-01-30T05:32:34;100511.09;;;0.77;54.98
47280;BME280;34064;44.942;0.008;2023-01-30T05:35:02;100510.25;;;0.73;55.27
47280;BME280;34064;44.942;0.008;2023-01-30T05:37:28;100506.78;;;0.70;55.09
47280;BME280;34064;44.942;0.008;2023-01-30T05:39:55;100518.09;;;0.72;55.26
47280;BME280;34064;44.942;0.008;2023-01-30T05:42:26;100515.50;;;0.70;55.02
47280;BME280;34064;44.942;0.008;2023-01-30T05:44:54;100516.38;;;0.69;55.15
47280;BME280;34064;44.942;0.008;2023-01-30T05:47:21;100514.63;;;0.70;55.00
47280;BME280;34064;44.942;0.008;2023-01-30T05:49:48;100525.13;;;0.67;55.40
47280;BME280;34064;44.942;0.008;2023-01-30T05:52:15;100526.00;;;0.66;55.47
47280;BME280;34064;44.942;0.008;2023-01-30T05:54:43;100533.84;;;0.66;55.03
47280;BME280;34064;44.942;0.008;2023-01-30T05:57:11;100527.75;;;0.64;55.17
47280;BME280;34064;44.942;0.008;2023-01-30T05:59:39;100532.16;;;0.60;55.22
47280;BME280;34064;44.942;0.008;2023-01-30T06:02:05;100537.44;;;0.52;55.54
47280;BME280;34064;44.942;0.008;2023-01-30T06:04:33;100526.13;;;0.50;55.33
47280;BME280;34064;44.942;0.008;2023-01-30T06:07:01;100524.34;;;0.52;55.63
47280;BME280;34064;44.942;0.008;2023-01-30T06:09:28;100526.09;;;0.52;55.64
47280;BME280;34064;44.942;0.008;2023-01-30T06:11:56;100537.41;;;0.55;55.26
47280;BME280;34064;44.942;0.008;2023-01-30T06:14:24;100539.13;;;0.59;55.37
47280;BME280;34064;44.942;0.008;2023-01-30T06:16:54;100546.06;;;0.64;55.46
47280;BME280;34064;44.942;0.008;2023-01-30T06:19:22;100549.56;;;0.61;55.39
47280;BME280;34064;44.942;0.008;2023-01-30T06:21:49;100551.38;;;0.54;55.63
47280;BME280;34064;44.942;0.008;2023-01-30T06:24:17;100558.38;;;0.49;55.51
47280;BME280;34064;44.942;0.008;2023-01-30T06:26:44;100561.00;;;0.47;55.42
47280;BME280;34064;44.942;0.008;2023-01-30T06:29:15;100547.09;;;0.45;55.59
47280;BME280;34064;44.942;0.008;2023-01-30T06:31:42;100544.47;;;0.44;55.30
47280;BME280;34064;44.942;0.008;2023-01-30T06:34:11;100547.06;;;0.44;55.36
47280;BME280;34064;44.942;0.008;2023-01-30T06:36:41;100550.63;;;0.40;55.35
47280;BME280;34064;44.942;0.008;2023-01-30T06:39:09;100555.84;;;0.40;55.43
47280;BME280;34064;44.942;0.008;2023-01-30T06:41:36;100568.03;;;0.39;55.51
47280;BME280;34064;44.942;0.008;2023-01-30T06:44:04;100573.31;;;0.36;55.32
47280;BME280;34064;44.942;0.008;2023-01-30T06:46:31;100577.69;;;0.33;55.28
47280;BME280;34064;44.942;0.008;2023-01-30T06:48:59;100582.91;;;0.31;55.79
47280;BME280;34064;44.942;0.008;2023-01-30T06:51:25;100585.50;;;0.31;55.37
47280;BME280;34064;44.942;0.008;2023-01-30T06:53:52;100602.09;;;0.32;55.48
47280;BME280;34064;44.942;0.008;2023-01-30T06:56:19;100605.56;;;0.32;55.67
47280;BME280;34064;44.942;0.008;2023-01-30T06:58:46;100609.06;;;0.33;55.42
47280;BME280;34064;44.942;0.008;2023-01-30T07:01:12;100623.84;;;0.32;55.58
47280;BME280;34064;44.942;0.008;2023-01-30T07:03:39;100621.25;;;0.30;55.35
47280;BME280;34064;44.942;0.008;2023-01-30T07:06:06;100624.75;;;0.29;55.62
47280;BME280;34064;44.942;0.008;2023-01-30T07:08:32;100622.16;;;0.28;55.80
47280;BME280;34064;44.942;0.008;2023-01-30T07:10:58;100623.88;;;0.30;55.65
47280;BME280;34064;44.942;0.008;2023-01-30T07:13:25;100643.03;;;0.33;55.79
47280;BME280;34064;44.942;0.008;2023-01-30T07:15:51;100640.41;;;0.34;55.45
47280;BME280;34064;44.942;0.008;2023-01-30T07:18:18;100634.28;;;0.37;55.69
47280;BME280;34064;44.942;0.008;2023-01-30T07:20:48;100637.78;;;0.39;55.50
47280;BME280;34064;44.942;0.008;2023-01-30T07:23:15;100633.41;;;0.41;55.39
47280;BME280;34064;44.942;0.008;2023-01-30T07:25:42;100624.72;;;0.37;55.39
47280;BME280;34064;44.942;0.008;2023-01-30T07:28:10;100622.13;;;0.33;55.73
47280;BME280;34064;44.942;0.008;2023-01-30T07:30:37;100622.13;;;0.29;55.28
47280;BME280;34064;44.942;0.008;2023-01-30T07:33:05;100619.56;;;0.23;55.52
47280;BME280;34064;44.942;0.008;2023-01-30T07:35:34;100632.66;;;0.19;55.19
47280;BME280;34064;44.942;0.008;2023-01-30T07:38:02;100643.09;;;0.17;55.32
47280;BME280;34064;44.942;0.008;2023-01-30T07:40:30;100639.63;;;0.15;55.60
47280;BME280;34064;44.942;0.008;2023-01-30T07:43:04;100658.81;;;0.14;55.18
47280;BME280;34064;44.942;0.008;2023-01-30T07:45:43;100657.06;;;0.14;55.37
47280;BME280;34064;44.942;0.008;2023-01-30T07:48:15;100661.41;;;0.17;55.50
47280;BME280;34064;44.942;0.008;2023-01-30T07:50:44;100658.78;;;0.17;55.77
47280;BME280;34064;44.942;0.008;2023-01-30T07:53:12;100643.13;;;0.19;55.49
47280;BME280;34064;44.942;0.008;2023-01-30T07:55:39;100645.72;;;0.17;55.49
47280;BME280;34064;44.942;0.008;2023-01-30T07:58:05;100650.94;;;0.20;55.70
47280;BME280;34064;44.942;0.008;2023-01-30T08:00:32;100648.31;;;0.22;55.81
47280;BME280;34064;44.942;0.008;2023-01-30T08:02:59;100647.44;;;0.23;55.63
47280;BME280;34064;44.942;0.008;2023-01-30T08:05:25;100649.19;;;0.22;55.46
47280;BME280;34064;44.942;0.008;2023-01-30T08:07:54;100647.41;;;0.24;55.59
47280;BME280;34064;44.942;0.008;2023-01-30T08:10:21;100658.75;;;0.25;55.85
47280;BME280;34064;44.942;0.008;2023-01-30T08:12:49;100660.47;;;0.27;55.66
47280;BME280;34064;44.942;0.008;2023-01-30T08:15:16;100670.06;;;0.32;55.36
47280;BME280;34064;44.942;0.008;2023-01-30T08:17:43;100675.25;;;0.35;55.38
47280;BME280;34064;44.942;0.008;2023-01-30T08:20:09;100663.06;;;0.37;55.35
47280;BME280;34064;44.942;0.008;2023-01-30T08:22:36;100648.22;;;0.40;55.56
47280;BME280;34064;44.942;0.008;2023-01-30T08:25:02;100649.06;;;0.45;55.52
47280;BME280;34064;44.942;0.008;2023-01-30T08:27:29;100642.91;;;0.54;55.38
47280;BME280;34064;44.942;0.008;2023-01-30T08:29:55;100643.75;;;0.59;55.75
47280;BME280;34064;44.942;0.008;2023-01-30T08:32:22;100655.91;;;0.68;55.65
47280;BME280;34064;44.942;0.008;2023-01-30T08:34:48;100654.13;;;0.75;55.52
47280;BME280;34064;44.942;0.008;2023-01-30T08:37:14;100654.06;;;0.81;55.92
47280;BME280;34064;44.942;0.008;2023-01-30T08:39:41;100657.53;;;0.89;55.49
47280;BME280;34064;44.942;0.008;2023-01-30T08:42:07;100659.22;;;0.97;55.37
47280;BME280;34064;44.942;0.008;2023-01-30T08:44:33;100653.91;;;1.06;55.25
47280;BME280;34064;44.942;0.008;2023-01-30T08:47:00;100656.50;;;1.11;55.86
47280;BME280;34064;44.942;0.008;2023-01-30T08:49:26;100651.19;;;1.20;55.74
47280;BME280;34064;44.942;0.008;2023-01-30T08:51:52;100649.38;;;1.27;55.46
47280;BME280;34064;44.942;0.008;2023-01-30T08:54:19;100644.94;;;1.35;55.65
47280;BME280;34064;44.942;0.008;2023-01-30T08:56:45;100646.59;;;1.45;55.78
47280;BME280;34064;44.942;0.008;2023-01-30T08:59:12;100636.03;;;1.54;55.26
47280;BME280;34064;44.942;0.008;2023-01-30T09:01:38;100626.28;;;1.66;55.14
47280;BME280;34064;44.942;0.008;2023-01-30T09:04:04;100623.56;;;1.75;55.30
47280;BME280;34064;44.942;0.008;2023-01-30T09:06:31;100624.31;;;1.86;54.68
47280;BME280;34064;44.942;0.008;2023-01-30T09:08:58;100623.34;;;1.94;55.24
47280;BME280;34064;44.942;0.008;2023-01-30T09:11:25;100613.66;;;2.02;55.04
47280;BME280;34064;44.942;0.008;2023-01-30T09:13:51;100623.16;;;2.09;55.03
47280;BME280;34064;44.942;0.008;2023-01-30T09:16:18;100609.06;;;2.20;55.22
47280;BME280;34064;44.942;0.008;2023-01-30T09:18:44;100615.94;;;2.27;55.46
47280;BME280;34064;44.942;0.008;2023-01-30T09:21:12;100626.34;;;2.33;55.19
47280;BME280;34064;44.942;0.008;2023-01-30T09:23:38;100632.38;;;2.40;55.73
47280;BME280;34064;44.942;0.008;2023-01-30T09:26:05;100626.16;;;2.47;55.68
47280;BME280;34064;44.942;0.008;2023-01-30T09:28:32;100633.03;;;2.56;55.35
47280;BME280;34064;44.942;0.008;2023-01-30T09:31:00;100635.56;;;2.63;55.52
47280;BME280;34064;44.942;0.008;2023-01-30T09:33:26;100629.28;;;2.72;55.63
47280;BME280;34064;44.942;0.008;2023-01-30T09:35:53;100632.66;;;2.80;55.38
47280;BME280;34064;44.942;0.008;2023-01-30T09:38:20;100620.28;;;2.90;55.51
47280;BME280;34064;44.942;0.008;2023-01-30T09:40:59;100618.34;;;3.00;56.02
47280;BME280;34064;44.942;0.008;2023-01-30T09:52:17;100601.09;;;3.37;56.82
47280;BME280;34064;44.942;0.008;2023-01-30T09:54:48;100605.31;;;3.46;56.67
47280;BME280;34064;44.942;0.008;2023-01-30T09:57:20;100594.63;;;3.55;56.67
47280;BME280;34064;44.942;0.008;2023-01-30T10:05:14;100576.47;;;3.88;56.56
47280;BME280;34064;44.942;0.008;2023-01-30T10:13:20;100571.31;;;4.24;57.22
47280;BME280;34064;44.942;0.008;2023-01-30T10:16:17;100569.34;;;4.34;57.56
47280;BME280;34064;44.942;0.008;2023-01-30T10:21:46;100564.47;;;4.55;57.73
47280;BME280;34064;44.942;0.008;2023-01-30T10:26:57;100547.25;;;4.77;57.15
47280;BME280;34064;44.942;0.008;2023-01-30T10:29:31;100539.19;;;4.85;57.17
47280;BME280;34064;44.942;0.008;2023-01-30T10:32:02;100533.59;;;4.97;57.21
47280;BME280;34064;44.942;0.008;2023-01-30T10:34:39;100523.59;;;5.10;57.28
47280;BME280;34064;44.942;0.008;2023-01-30T10:40:13;100519.47;;;5.33;57.10
47280;BME280;34064;44.942;0.008;2023-01-30T10:46:03;100506.66;;;5.52;56.75
47280;BME280;34064;44.942;0.008;2023-01-30T10:54:41;100489.00;;;5.84;56.52
47280;BME280;34064;44.942;0.008;2023-01-30T11:02:40;100498.38;;;6.24;56.31
47280;BME280;34064;44.942;0.008;2023-01-30T11:05:15;100491.78;;;6.38;56.23
47280;BME280;34064;44.942;0.008;2023-01-30T11:07:45;100480.81;;;6.50;55.76
47280;BME280;34064;44.942;0.008;2023-01-30T11:10:19;100467.22;;;6.63;55.50
47280;BME280;34064;44.942;0.008;2023-01-30T11:12:46;100459.00;;;6.72;55.42
47280;BME280;34064;44.942;0.008;2023-01-30T11:15:13;100455.28;;;6.78;55.42
47280;BME280;34064;44.942;0.008;2023-01-30T11:17:40;100458.56;;;6.84;55.28
47280;BME280;34064;44.942;0.008;2023-01-30T11:20:18;100455.97;;;7.08;54.47
47280;BME280;34064;44.942;0.008;2023-01-30T11:23:03;100449.75;;;7.09;54.37
47280;BME280;34064;44.942;0.008;2023-01-30T11:25:30;100460.06;;;7.17;54.22
47280;BME280;34064;44.942;0.008;2023-01-30T11:28:05;100455.47;;;7.22;54.17
47280;BME280;34064;44.942;0.008;2023-01-30T11:30:35;100449.84;;;7.31;53.81
47280;BME280;34064;44.942;0.008;2023-01-30T11:33:10;100452.25;;;7.38;53.58
47280;BME280;34064;44.942;0.008;2023-01-30T11:35:55;100436.50;;;7.58;52.59
47280;BME280;34064;44.942;0.008;2023-01-30T11:38:29;100431.09;;;7.61;53.08
47280;BME280;34064;44.942;0.008;2023-01-30T11:41:17;100431.75;;;7.68;52.89
47280;BME280;34064;44.942;0.008;2023-01-30T11:43:44;100424.91;;;7.85;52.56
47280;BME280;34064;44.942;0.008;2023-01-30T11:46:16;100414.78;;;7.96;52.33
47280;BME280;34064;44.942;0.008;2023-01-30T11:48:52;100414.63;;;7.99;51.72
47280;BME280;34064;44.942;0.008;2023-01-30T11:51:23;100410.84;;;8.06;52.08
47280;BME280;34064;44.942;0.008;2023-01-30T11:54:06;100398.16;;;8.15;51.89
47280;BME280;34064;44.942;0.008;2023-01-30T11:56:45;100401.44;;;8.20;51.85
47280;BME280;34064;44.942;0.008;2023-01-30T12:00:11;100393.50;;;8.20;51.83
47280;BME280;34064;44.942;0.008;2023-01-30T12:02:34;100382.53;;;8.29;51.42
47280;BME280;34064;44.942;0.008;2023-01-30T12:07:44;100369.44;;;8.47;51.40
47280;BME280;34064;44.942;0.008;2023-01-30T12:10:34;100376.09;;;8.57;51.10
47280;BME280;34064;44.942;0.008;2023-01-30T12:13:12;100367.75;;;8.66;50.70
47280;BME280;34064;44.942;0.008;2023-01-30T12:15:43;100370.28;;;8.69;50.71
47280;BME280;34064;44.942;0.008;2023-01-30T12:18:22;100357.81;;;8.71;50.65
47280;BME280;34064;44.942;0.008;2023-01-30T12:24:04;100358.00;;;8.87;49.20
47280;BME280;34064;44.942;0.008;2023-01-30T12:26:43;100343.88;;;8.87;49.66
47280;BME280;34064;44.942;0.008;2023-01-30T12:29:36;100336.31;;;8.98;49.88
47280;BME280;34064;44.942;0.008;2023-01-30T12:34:34;100327.06;;;9.07;49.84
47280;BME280;34064;44.942;0.008;2023-01-30T12:37:04;100313.47;;;9.15;49.67
47280;BME280;34064;44.942;0.008;2023-01-30T12:43:12;100301.13;;;9.33;49.73
47280;BME280;34064;44.942;0.008;2023-01-30T12:48:58;100295.00;;;9.50;48.51
47280;BME280;34064;44.942;0.008;2023-01-30T13:00:03;100283.41;;;9.52;48.03
47280;BME280;34064;44.942;0.008;2023-01-30T13:05:39;100279.50;;;9.60;48.94
47280;BME280;34064;44.942;0.008;2023-01-30T13:11:18;100261.50;;;9.84;47.99
47280;BME280;34064;44.942;0.008;2023-01-30T13:14:14;100253.09;;;9.93;47.06
47280;BME280;34064;44.942;0.008;2023-01-30T13:17:01;100253.44;;;10.03;46.21
47280;BME280;34064;44.942;0.008;2023-01-30T13:19:40;100251.34;;;10.10;46.29
47280;BME280;34064;44.942;0.008;2023-01-30T13:22:38;100238.94;;;10.10;46.17
47280;BME280;34064;44.942;0.008;2023-01-30T13:28:00;100229.00;;;10.32;46.00
47280;BME280;34064;44.942;0.008;2023-01-30T13:30:30;100226.72;;;10.24;45.54
47280;BME280;34064;44.942;0.008;2023-01-30T13:33:14;100222.44;;;10.21;45.91
47280;BME280;34064;44.942;0.008;2023-01-30T13:38:37;100204.84;;;10.36;45.84
47280;BME280;34064;44.942;0.008;2023-01-30T13:41:09;100205.66;;;10.38;45.19
47280;BME280;34064;44.942;0.008;2023-01-30T13:43:43;100209.16;;;10.39;45.61
47280;BME280;34064;44.942;0.008;2023-01-30T13:46:23;100208.56;;;10.50;45.32
47280;BME280;34064;44.942;0.008;2023-01-30T13:51:57;100195.31;;;10.66;46.02
47280;BME280;34064;44.942;0.008;2023-01-30T13:54:36;100189.59;;;10.73;44.62
47280;BME280;34064;44.942;0.008;2023-01-30T13:57:30;100191.13;;;10.77;44.00
47280;BME280;34064;44.942;0.008;2023-01-30T14:08:26;100185.81;;;10.93;44.32
47280;BME280;34064;44.942;0.008;2023-01-30T14:10:54;100191.91;;;10.96;44.17
47280;BME280;34064;44.942;0.008;2023-01-30T14:13:22;100187.63;;;11.09;43.76
47280;BME280;34064;44.942;0.008;2023-01-30T14:18:27;100201.34;;;11.17;43.80
47280;BME280;34064;44.942;0.008;2023-01-30T14:21:15;100193.25;;;11.35;43.16
47280;BME280;34064;44.942;0.008;2023-01-30T14:24:01;100196.56;;;11.38;42.53
47280;BME280;34064;44.942;0.008;2023-01-30T14:34:41;100203.53;;;11.41;42.50
47280;BME280;34064;44.942;0.008;2023-01-30T14:39:54;100195.28;;;11.46;42.43
47280;BME280;34064;44.942;0.008;2023-01-30T14:42:22;100201.31;;;11.33;42.62
47280;BME280;34064;44.942;0.008;2023-01-30T14:44:59;100206.91;;;11.29;43.39
47280;BME280;34064;44.942;0.008;2023-01-30T14:47:27;100211.25;;;11.30;43.58
47280;BME280;34064;44.942;0.008;2023-01-30T14:49:54;100210.91;;;11.36;43.33
47280;BME280;34064;44.942;0.008;2023-01-30T14:52:33;100206.44;;;11.36;42.91
47280;BME280;34064;44.942;0.008;2023-01-30T14:55:01;100209.19;;;11.35;43.22
47280;BME280;34064;44.942;0.008;2023-01-30T14:57:29;100201.63;;;11.43;43.20
47280;BME280;34064;44.942;0.008;2023-01-30T15:00:30;100207.91;;;11.42;43.58
47280;BME280;34064;44.942;0.008;2023-01-30T15:03:08;100210.91;;;11.36;43.41
47280;BME280;34064;44.942;0.008;2023-01-30T15:05:46;100207.50;;;11.34;43.33
47280;BME280;34064;44.942;0.008;2023-01-30T15:08:17;100207.31;;;11.37;42.28
47280;BME280;34064;44.942;0.008;2023-01-30T15:11:25;100209.84;;;11.24;42.48
47280;BME280;34064;44.942;0.008;2023-01-30T15:14:09;100206.47;;;11.20;43.16
47280;BME280;34064;44.942;0.008;2023-01-30T15:16:54;100211.63;;;11.23;43.38
47280;BME280;34064;44.942;0.008;2023-01-30T15:25:25;100205.59;;;11.36;42.98
47280;BME280;34064;44.942;0.008;2023-01-30T15:30:55;100212.56;;;11.22;42.57
47280;BME280;34064;44.942;0.008;2023-01-30T15:33:25;100206.97;;;11.11;42.75
47280;BME280;34064;44.942;0.008;2023-01-30T15:35:53;100220.22;;;10.97;43.39
47280;BME280;34064;44.942;0.008;2023-01-30T15:38:24;100221.91;;;10.82;43.55